createdAt,value
2023-05-14T00:01:01.425Z,98791.10
2023-05-14T00:03:28.006Z,98786.88
2023-05-14T00:05:54.833Z,98791.43
2023-05-14T00:08:21.394Z,98794.25
2023-05-14T00:10:47.942Z,98787.58
2023-05-14T00:13:14.477Z,98784.00
2023-05-14T00:15:41.434Z,98783.18
2023-05-14T00:18:07.951Z,98777.86
2023-05-14T00:20:34.463Z,98776.60
2023-05-14T00:23:01.176Z,98772.46
2023-05-14T00:25:27.930Z,98770.08
2023-05-14T00:27:54.504Z,98768.52
2023-05-14T00:30:21.113Z,98766.63
2023-05-14T00:32:47.705Z,98772.09
2023-05-14T00:35:14.356Z,98768.87
2023-05-14T00:37:40.840Z,98767.36
2023-05-14T00:40:08.145Z,98772.45
2023-05-14T00:42:34.979Z,98772.42
2023-05-14T00:45:01.683Z,98773.05
2023-05-14T00:47:28.501Z,98773.09
2023-05-14T00:49:55.647Z,98773.06
2023-05-14T00:52:22.233Z,98774.02
2023-05-14T00:54:49.399Z,98775.25
2023-05-14T00:57:16.279Z,98774.05
2023-05-14T00:59:43.005Z,98772.09
2023-05-14T01:02:09.578Z,98770.84
2023-05-14T01:04:36.922Z,98772.75
2023-05-14T01:07:32.807Z,98775.73
2023-05-14T01:10:20.240Z,98779.60
2023-05-14T01:13:04.194Z,98782.77
2023-05-14T01:15:35.978Z,98786.28
2023-05-14T01:18:16.961Z,98791.83
2023-05-14T01:20:44.770Z,98789.12
2023-05-14T01:23:11.364Z,98790.23
2023-05-14T01:25:38.137Z,98788.73
2023-05-14T01:28:19.255Z,98791.30
2023-05-14T01:30:57.252Z,98787.92
2023-05-14T01:33:27.611Z,98789.15
2023-05-14T01:35:55.657Z,98788.75
2023-05-14T01:40:51.323Z,98786.64
2023-05-14T01:43:19.296Z,98782.52
2023-05-14T01:45:46.217Z,98780.99
2023-05-14T01:48:12.816Z,98783.92
2023-05-14T01:50:39.489Z,98779.91
2023-05-14T01:53:06.003Z,98782.74
2023-05-14T01:55:32.838Z,98781.80
2023-05-14T01:57:59.287Z,98777.61
2023-05-14T02:00:26.314Z,98773.28
2023-05-14T02:02:53.682Z,98771.98
2023-05-14T02:05:20.407Z,98767.94
2023-05-14T02:07:46.933Z,98765.45
2023-05-14T02:10:13.825Z,98758.59
2023-05-14T02:12:40.756Z,98754.17
2023-05-14T02:15:08.418Z,98748.73
2023-05-14T02:17:35.034Z,98745.31
2023-05-14T02:20:01.558Z,98744.63
2023-05-14T02:22:28.028Z,98750.73
2023-05-14T02:24:54.529Z,98750.29
2023-05-14T02:27:20.978Z,98755.14
2023-05-14T02:29:47.576Z,98748.15
2023-05-14T02:32:14.216Z,98746.47
2023-05-14T02:34:40.700Z,98740.99
2023-05-14T02:37:07.385Z,98738.13
2023-05-14T02:39:33.969Z,98737.60
2023-05-14T02:42:00.512Z,98734.20
2023-05-14T02:44:27.188Z,98734.25
2023-05-14T02:46:53.829Z,98728.82
2023-05-14T02:49:20.550Z,98724.20
2023-05-14T02:51:46.980Z,98720.30
2023-05-14T02:54:13.754Z,98721.34
2023-05-14T02:56:40.480Z,98729.40
2023-05-14T02:59:07.576Z,98732.17
2023-05-14T03:01:34.684Z,98739.38
2023-05-14T03:04:02.038Z,98742.52
2023-05-14T03:06:28.746Z,98745.11
2023-05-14T03:08:55.206Z,98742.86
2023-05-14T03:11:21.849Z,98741.38
2023-05-14T03:13:48.551Z,98741.80
2023-05-14T03:16:15.094Z,98744.16
2023-05-14T03:18:41.660Z,98742.41
2023-05-14T03:21:08.236Z,98746.06
2023-05-14T03:23:35.564Z,98748.36
2023-05-14T03:26:02.370Z,98749.98
2023-05-14T03:28:29.097Z,98751.24
2023-05-14T03:30:55.806Z,98751.27
2023-05-14T03:33:22.694Z,98755.55
2023-05-14T03:35:49.211Z,98762.15
2023-05-14T03:38:15.970Z,98752.35
2023-05-14T03:40:42.514Z,98755.55
2023-05-14T03:43:09.178Z,98755.95
2023-05-14T03:45:36.357Z,98752.73
2023-05-14T03:48:03.432Z,98749.98
2023-05-14T03:50:30.316Z,98746.34
2023-05-14T03:52:57.099Z,98745.84
2023-05-14T03:55:23.792Z,98744.17
2023-05-14T03:57:50.478Z,98739.85
2023-05-14T04:00:17.116Z,98735.58
2023-05-14T04:02:43.843Z,98732.59
2023-05-14T04:05:10.479Z,98727.17
2023-05-14T04:07:37.003Z,98729.84
2023-05-14T04:10:04.756Z,98728.31
2023-05-14T04:12:31.593Z,98726.70
2023-05-14T04:14:58.497Z,98720.36
2023-05-14T04:17:25.222Z,98715.73
2023-05-14T04:19:51.739Z,98710.55
2023-05-14T04:22:18.235Z,98709.34
2023-05-14T04:24:44.721Z,98708.78
2023-05-14T04:27:11.148Z,98707.66
2023-05-14T04:29:37.683Z,98700.83
2023-05-14T04:32:04.892Z,98702.14
2023-05-14T04:34:32.016Z,98701.45
2023-05-14T04:36:58.767Z,98693.27
2023-05-14T04:39:25.267Z,98694.90
2023-05-14T04:41:51.691Z,98694.95
2023-05-14T04:44:18.176Z,98692.08
2023-05-14T04:46:44.620Z,98690.27
2023-05-14T04:49:11.167Z,98688.67
2023-05-14T04:51:37.634Z,98691.58
2023-05-14T04:54:04.313Z,98686.67
2023-05-14T04:56:30.826Z,98682.66
2023-05-14T04:58:57.362Z,98686.48
2023-05-14T05:01:23.893Z,98682.81
2023-05-14T05:03:50.405Z,98686.75
2023-05-14T05:06:16.923Z,98687.21
2023-05-14T05:08:43.552Z,98683.10
2023-05-14T05:11:09.990Z,98678.20
2023-05-14T05:13:36.546Z,98677.30
2023-05-14T05:16:03.113Z,98675.80
2023-05-14T05:18:29.772Z,98674.83
2023-05-14T05:20:56.646Z,98678.64
2023-05-14T05:23:23.064Z,98677.33
2023-05-14T05:25:50.616Z,98676.59
2023-05-14T05:28:17.128Z,98669.97
2023-05-14T05:30:43.658Z,98669.95
2023-05-14T05:33:10.254Z,98673.61
2023-05-14T05:35:36.784Z,98675.16
2023-05-14T05:38:03.325Z,98676.31
2023-05-14T05:40:29.827Z,98674.67
2023-05-14T05:42:56.313Z,98672.77
2023-05-14T05:45:22.841Z,98677.16
2023-05-14T05:47:49.307Z,98674.52
2023-05-14T05:50:16.173Z,98671.14
2023-05-14T05:52:43.229Z,98670.40
2023-05-14T05:55:10.225Z,98663.64
2023-05-14T05:57:36.660Z,98660.35
2023-05-14T06:00:03.635Z,98659.11
2023-05-14T06:02:30.185Z,98656.52
2023-05-14T06:04:56.991Z,98656.36
2023-05-14T06:07:23.658Z,98651.08
2023-05-14T06:09:50.247Z,98647.80
2023-05-14T06:12:16.801Z,98652.63
2023-05-14T06:14:43.249Z,98648.55
2023-05-14T06:17:09.711Z,98645.52
2023-05-14T06:19:36.175Z,98644.30
2023-05-14T06:22:02.693Z,98649.21
2023-05-14T06:24:29.104Z,98650.54
2023-05-14T06:26:55.686Z,98646.86
2023-05-14T06:29:22.254Z,98644.04
2023-05-14T06:31:48.879Z,98642.33
2023-05-14T06:34:15.426Z,98637.83
2023-05-14T06:36:42.050Z,98634.73
2023-05-14T06:39:08.565Z,98626.77
2023-05-14T06:41:35.116Z,98631.49
2023-05-14T06:44:01.548Z,98627.67
2023-05-14T06:46:27.988Z,98623.55
2023-05-14T06:48:55.694Z,98618.92
2023-05-14T06:51:23.342Z,98623.23
2023-05-14T06:53:49.765Z,98624.70
2023-05-14T06:56:16.203Z,98623.86
2023-05-14T06:58:42.601Z,98621.91
2023-05-14T07:01:09.179Z,98622.71
2023-05-14T07:03:35.707Z,98625.38
2023-05-14T07:06:02.258Z,98627.79
2023-05-14T07:08:28.948Z,98627.33
2023-05-14T07:10:55.414Z,98624.25
2023-05-14T07:13:21.880Z,98618.79
2023-05-14T07:15:48.424Z,98605.73
2023-05-14T07:18:15.119Z,98594.16
2023-05-14T07:20:41.534Z,98589.74
2023-05-14T07:23:08.043Z,98591.27
2023-05-14T07:25:34.516Z,98589.68
2023-05-14T07:28:00.927Z,98588.84
2023-05-14T07:30:27.376Z,98587.80
2023-05-14T07:32:54.039Z,98578.92
2023-05-14T07:35:20.806Z,98578.64
2023-05-14T07:37:47.459Z,98579.27
2023-05-14T07:40:14.060Z,98575.09
2023-05-14T07:42:40.794Z,98567.86
2023-05-14T07:45:08.417Z,98566.46
2023-05-14T07:47:35.152Z,98571.30
2023-05-14T07:50:02.012Z,98569.09
2023-05-14T07:52:28.473Z,98564.46
2023-05-14T07:54:55.034Z,98564.11
2023-05-14T07:57:21.543Z,98562.64
2023-05-14T07:59:48.715Z,98561.69
2023-05-14T08:02:15.668Z,98558.66
2023-05-14T08:04:42.220Z,98562.63
2023-05-14T08:07:08.767Z,98559.65
2023-05-14T08:09:35.360Z,98560.89
2023-05-14T08:12:02.056Z,98551.27
2023-05-14T08:14:28.608Z,98552.65
2023-05-14T08:16:55.308Z,98544.29
2023-05-14T08:19:23.167Z,98538.59
2023-05-14T08:21:49.690Z,98535.50
2023-05-14T08:24:16.265Z,98535.25
2023-05-14T08:26:42.785Z,98529.93
2023-05-14T08:29:10.698Z,98526.77
2023-05-14T08:31:38.202Z,98527.48
2023-05-14T08:34:04.683Z,98531.29
2023-05-14T08:36:31.129Z,98529.77
2023-05-14T08:39:06.291Z,98523.11
2023-05-14T08:41:32.827Z,98523.30
2023-05-14T08:44:13.612Z,98522.17
2023-05-14T08:46:41.597Z,98522.11
2023-05-14T08:49:17.760Z,98522.27
2023-05-14T08:51:44.948Z,98521.75
2023-05-14T08:54:13.016Z,98519.27
2023-05-14T08:56:41.118Z,98517.27
2023-05-14T08:59:07.656Z,98512.86
2023-05-14T09:01:34.416Z,98512.61
2023-05-14T09:04:02.077Z,98508.41
2023-05-14T09:06:29.419Z,98504.14
2023-05-14T09:08:56.386Z,98505.77
2023-05-14T09:11:22.829Z,98500.16
2023-05-14T09:13:49.269Z,98498.88
2023-05-14T09:16:18.440Z,98498.25
2023-05-14T09:18:45.539Z,98491.52
2023-05-14T09:21:17.730Z,98495.67
2023-05-14T09:23:45.091Z,98486.66
2023-05-14T09:26:12.575Z,98483.35
2023-05-14T09:28:43.616Z,98476.26
2023-05-14T09:31:10.231Z,98477.52
2023-05-14T09:33:36.919Z,98479.92
2023-05-14T09:36:03.563Z,98470.67
2023-05-14T09:38:33.484Z,98467.45
2023-05-14T09:41:00.829Z,98466.03
2023-05-14T09:43:27.327Z,98461.09
2023-05-14T09:45:53.878Z,98457.35
2023-05-14T09:48:20.847Z,98449.98
2023-05-14T09:50:47.500Z,98452.01
2023-05-14T09:53:14.649Z,98445.95
2023-05-14T09:55:41.495Z,98445.36
2023-05-14T09:58:07.968Z,98448.16
2023-05-14T10:00:35.539Z,98448.88
2023-05-14T10:03:06.656Z,98440.34
2023-05-14T10:05:36.172Z,98435.86
2023-05-14T10:08:09.313Z,98429.66
2023-05-14T10:10:37.890Z,98428.29
2023-05-14T10:13:12.272Z,98419.86
2023-05-14T10:16:23.610Z,98415.98
2023-05-14T10:18:55.767Z,98409.45
2023-05-14T10:21:24.728Z,98405.21
2023-05-14T10:23:52.260Z,98400.82
2023-05-14T10:26:18.965Z,98396.97
2023-05-14T10:28:45.827Z,98392.17
2023-05-14T10:31:13.316Z,98388.96
2023-05-14T10:33:48.307Z,98387.55
2023-05-14T10:36:15.266Z,98379.77
2023-05-14T10:38:41.730Z,98369.48
2023-05-14T10:41:13.282Z,98366.63
2023-05-14T10:43:41.667Z,98362.31
2023-05-14T10:46:10.587Z,98361.75
2023-05-14T10:48:39.737Z,98355.77
2023-05-14T10:51:08.766Z,98353.08
2023-05-14T10:53:41.365Z,98346.46
2023-05-14T10:56:12.353Z,98349.65
2023-05-14T10:58:41.680Z,98346.95
2023-05-14T11:01:10.149Z,98348.46
2023-05-14T11:03:45.372Z,98348.58
2023-05-14T11:06:15.995Z,98352.32
2023-05-14T11:08:42.778Z,98350.23
2023-05-14T11:11:10.859Z,98347.38
2023-05-14T11:13:37.937Z,98343.33
2023-05-14T11:16:18.896Z,98343.34
2023-05-14T11:18:53.782Z,98341.56
2023-05-14T11:21:20.405Z,98343.06
2023-05-14T11:23:47.058Z,98342.29
2023-05-14T11:26:14.137Z,98342.06
2023-05-14T11:28:41.396Z,98348.21
2023-05-14T11:31:07.942Z,98344.45
2023-05-14T11:33:36.042Z,98348.48
2023-05-14T11:36:02.633Z,98350.25
2023-05-14T11:38:29.103Z,98349.33
2023-05-14T11:40:56.817Z,98341.89
2023-05-14T11:43:23.891Z,98335.34
2023-05-14T11:45:54.347Z,98329.19
2023-05-14T11:48:22.236Z,98334.30
2023-05-14T11:50:50.604Z,98330.52
2023-05-14T11:53:25.441Z,98324.57
2023-05-14T11:55:53.383Z,98322.23
2023-05-14T11:58:20.591Z,98310.37
2023-05-14T12:00:50.201Z,98300.80
2023-05-14T12:03:18.390Z,98295.14
2023-05-14T12:05:59.528Z,98299.53
2023-05-14T12:08:30.674Z,98292.98
2023-05-14T12:10:59.343Z,98284.73
2023-05-14T12:13:32.987Z,98284.35
2023-05-14T12:16:01.477Z,98281.73
2023-05-14T12:18:29.958Z,98273.21
2023-05-14T12:21:02.766Z,98266.20
2023-05-14T12:23:30.911Z,98263.70
2023-05-14T12:26:08.685Z,98261.44
2023-05-14T12:28:38.388Z,98251.15
2023-05-14T12:31:05.701Z,98240.65
2023-05-14T12:33:32.366Z,98242.11
2023-05-14T12:36:00.499Z,98237.52
2023-05-14T12:38:32.065Z,98235.00
2023-05-14T12:40:58.596Z,98233.58
2023-05-14T12:43:25.105Z,98226.11
2023-05-14T12:45:51.671Z,98222.95
2023-05-14T12:48:18.129Z,98223.67
2023-05-14T12:50:44.786Z,98226.25
2023-05-14T12:53:11.327Z,98229.07
2023-05-14T12:55:37.780Z,98230.75
2023-05-14T12:58:04.276Z,98227.25
2023-05-14T13:00:30.760Z,98225.91
2023-05-14T13:02:57.499Z,98228.05
2023-05-14T13:05:24.263Z,98222.14
2023-05-14T13:07:52.563Z,98217.55
2023-05-14T13:10:19.107Z,98221.63
2023-05-14T13:12:45.660Z,98220.36
2023-05-14T13:15:12.224Z,98216.95
2023-05-14T13:17:39.026Z,98220.05
2023-05-14T13:20:06.390Z,98218.07
2023-05-14T13:22:32.826Z,98216.29
2023-05-14T13:24:59.434Z,98215.52
2023-05-14T13:27:25.992Z,98205.36
2023-05-14T13:29:52.419Z,98200.25
2023-05-14T13:32:18.985Z,98202.10
2023-05-14T13:34:45.546Z,98199.81
2023-05-14T13:37:12.196Z,98198.13
2023-05-14T13:39:39.806Z,98196.31
2023-05-14T13:42:07.514Z,98193.81
2023-05-14T13:44:34.009Z,98188.41
2023-05-14T13:47:00.478Z,98187.75
2023-05-14T13:49:26.882Z,98191.20
2023-05-14T13:51:53.366Z,98188.91
2023-05-14T13:54:19.828Z,98187.80
2023-05-14T13:56:46.239Z,98179.25
2023-05-14T13:59:12.782Z,98174.95
2023-05-14T14:01:39.331Z,98171.48
2023-05-14T14:04:05.984Z,98165.29
2023-05-14T14:06:32.532Z,98172.03
2023-05-14T14:08:59.020Z,98167.00
2023-05-14T14:11:25.731Z,98161.92
2023-05-14T14:13:52.328Z,98162.21
2023-05-14T14:16:19.121Z,98158.55
2023-05-14T14:18:45.819Z,98158.52
2023-05-14T14:21:12.318Z,98155.50
2023-05-14T14:23:38.866Z,98155.90
2023-05-14T14:26:05.329Z,98156.21
2023-05-14T14:28:32.767Z,98151.77
2023-05-14T14:30:59.232Z,98149.41
2023-05-14T14:33:25.692Z,98152.42
2023-05-14T14:35:52.144Z,98149.52
2023-05-14T14:38:19.125Z,98147.28
2023-05-14T14:40:45.735Z,98136.83
2023-05-14T14:43:12.217Z,98126.61
2023-05-14T14:45:38.906Z,98120.98
2023-05-14T14:48:25.094Z,98115.95
2023-05-14T14:50:52.685Z,98110.15
2023-05-14T14:53:23.185Z,98108.56
2023-05-14T14:55:50.664Z,98105.06
2023-05-14T14:58:18.751Z,98107.93
2023-05-14T15:00:45.477Z,98105.52
2023-05-14T15:03:12.360Z,98107.43
2023-05-14T15:05:39.065Z,98105.95
2023-05-14T15:08:05.661Z,98103.47
2023-05-14T15:10:32.844Z,98101.11
2023-05-14T15:12:59.798Z,98091.70
2023-05-14T15:15:26.512Z,98093.43
2023-05-14T15:17:53.154Z,98086.06
2023-05-14T15:20:19.790Z,98075.58
2023-05-14T15:22:46.501Z,98076.90
2023-05-14T15:25:12.992Z,98070.35
2023-05-14T15:27:39.573Z,98069.30
2023-05-14T15:30:07.262Z,98067.46
2023-05-14T15:32:33.977Z,98067.55
2023-05-14T15:35:00.575Z,98069.76
2023-05-14T15:37:27.059Z,98069.27
2023-05-14T15:39:53.583Z,98070.80
2023-05-14T15:42:20.296Z,98072.05
2023-05-14T15:44:46.705Z,98070.26
2023-05-14T15:47:13.139Z,98067.18
2023-05-14T15:49:39.594Z,98066.23
2023-05-14T15:52:06.176Z,98068.86
2023-05-14T15:54:32.912Z,98069.08
2023-05-14T15:56:59.405Z,98067.39
2023-05-14T15:59:25.968Z,98059.41
2023-05-14T16:01:52.813Z,98058.15
2023-05-14T16:04:19.387Z,98052.77
2023-05-14T16:06:45.939Z,98051.57
2023-05-14T16:09:12.443Z,98053.36
2023-05-14T16:11:39.004Z,98046.38
2023-05-14T16:14:05.553Z,98039.63
2023-05-14T16:16:32.066Z,98035.61
2023-05-14T16:18:59.834Z,98029.80
2023-05-14T16:21:26.734Z,98026.52
2023-05-14T16:23:53.343Z,98024.92
2023-05-14T16:26:19.925Z,98025.60
2023-05-14T16:28:46.582Z,98024.73
2023-05-14T16:31:13.153Z,98019.31
2023-05-14T16:33:39.729Z,98018.02
2023-05-14T16:36:06.306Z,98017.40
2023-05-14T16:38:32.762Z,98015.36
2023-05-14T16:41:00.579Z,98017.95
2023-05-14T16:43:27.206Z,98016.70
2023-05-14T16:45:54.107Z,98016.00
2023-05-14T16:48:20.714Z,98014.61
2023-05-14T16:50:47.180Z,98013.65
2023-05-14T16:53:13.707Z,98011.29
2023-05-14T16:55:40.172Z,98010.84
2023-05-14T16:58:06.802Z,98009.15
2023-05-14T17:00:33.342Z,98009.77
2023-05-14T17:03:00.014Z,98006.23
2023-05-14T17:05:26.621Z,98004.40
2023-05-14T17:07:53.212Z,98000.55
2023-05-14T17:10:19.837Z,97999.98
2023-05-14T17:12:46.624Z,97992.17
2023-05-14T17:15:13.352Z,97990.65
2023-05-14T17:17:39.988Z,97992.29
2023-05-14T17:20:07.077Z,97992.88
2023-05-14T17:22:34.208Z,97987.12
2023-05-14T17:25:00.775Z,97989.36
2023-05-14T17:27:27.414Z,97991.27
2023-05-14T17:29:53.838Z,97991.39
2023-05-14T17:32:20.497Z,97994.46
2023-05-14T17:34:47.021Z,97987.18
2023-05-14T17:37:13.485Z,97981.10
2023-05-14T17:39:39.985Z,97978.52
2023-05-14T17:42:07.094Z,97973.75
2023-05-14T17:44:33.710Z,97971.20
2023-05-14T17:47:00.697Z,97967.83
2023-05-14T17:49:27.242Z,97960.88
2023-05-14T17:51:53.653Z,97953.59
2023-05-14T17:54:20.409Z,97951.63
2023-05-14T17:56:47.147Z,97953.09
2023-05-14T17:59:14.508Z,97958.64
2023-05-14T18:01:40.976Z,97956.54
2023-05-14T18:04:07.502Z,97960.59
2023-05-14T18:06:34.577Z,97965.29
2023-05-14T18:09:01.119Z,97973.01
2023-05-14T18:11:27.858Z,97976.30
2023-05-14T18:13:54.265Z,97982.18
2023-05-14T18:16:21.197Z,97984.53
2023-05-14T18:18:47.807Z,97988.58
2023-05-14T18:21:14.578Z,98000.77
2023-05-14T18:23:41.100Z,98010.24
2023-05-14T18:26:07.824Z,98010.67
2023-05-14T18:28:34.519Z,98010.86
2023-05-14T18:31:01.869Z,98009.22
2023-05-14T18:33:28.406Z,98009.48
2023-05-14T18:35:54.896Z,98013.59
2023-05-14T18:38:21.425Z,98017.52
2023-05-14T18:40:48.449Z,98010.45
2023-05-14T18:43:15.759Z,98014.39
2023-05-14T18:45:46.196Z,98015.56
2023-05-14T18:48:13.457Z,98015.40
2023-05-14T18:50:40.004Z,98014.14
2023-05-14T18:53:07.013Z,98012.66
2023-05-14T18:55:35.267Z,98013.84
2023-05-14T18:58:01.975Z,98010.20
2023-05-14T19:00:28.620Z,98020.67
2023-05-14T19:02:55.306Z,98022.19
2023-05-14T19:05:22.204Z,98024.96
2023-05-14T19:07:48.923Z,98028.54
2023-05-14T19:10:15.468Z,98028.33
2023-05-14T19:12:41.936Z,98027.52
2023-05-14T19:15:08.881Z,98031.08
2023-05-14T19:17:35.505Z,98029.86
2023-05-14T19:20:02.281Z,98028.44
2023-05-14T19:22:28.969Z,98022.74
2023-05-14T19:24:55.479Z,98033.67
2023-05-14T19:27:22.386Z,98036.45
2023-05-14T19:29:48.939Z,98035.20
2023-05-14T19:32:15.484Z,98036.20
2023-05-14T19:34:41.984Z,98028.06
2023-05-14T19:37:08.587Z,98016.23
2023-05-14T19:39:34.994Z,98001.27
2023-05-14T19:42:01.628Z,97982.12
2023-05-14T19:44:28.081Z,97982.20
2023-05-14T19:46:54.739Z,97979.01
2023-05-14T19:49:21.341Z,97978.69
2023-05-14T19:51:47.804Z,97975.25
2023-05-14T19:54:14.432Z,97969.46
2023-05-14T19:56:40.877Z,97964.60
2023-05-14T19:59:07.432Z,97960.58
2023-05-14T20:01:34.088Z,97958.57
2023-05-14T20:04:00.762Z,97961.54
2023-05-14T20:06:27.368Z,97960.44
2023-05-14T20:08:53.895Z,97960.14
2023-05-14T20:11:20.605Z,97952.63
2023-05-14T20:13:48.003Z,97952.97
2023-05-14T20:16:14.546Z,97954.92
2023-05-14T20:18:40.989Z,97960.37
2023-05-14T20:21:07.527Z,97956.88
2023-05-14T20:23:34.292Z,97955.31
2023-05-14T20:26:00.758Z,97948.63
2023-05-14T20:28:27.499Z,97947.21
2023-05-14T20:30:54.297Z,97946.87
2023-05-14T20:33:21.153Z,97941.27
2023-05-14T20:35:47.948Z,97931.98
2023-05-14T20:38:14.507Z,97923.96
2023-05-14T20:40:40.976Z,97922.90
2023-05-14T20:43:07.631Z,97918.20
2023-05-14T20:45:34.180Z,97913.23
2023-05-14T20:48:00.750Z,97901.30
2023-05-14T20:50:27.531Z,97889.38
2023-05-14T20:52:55.276Z,97879.88
2023-05-14T20:55:21.797Z,97875.49
2023-05-14T20:57:48.304Z,97877.39
2023-05-14T21:00:15.395Z,97874.05
2023-05-14T21:02:42.009Z,97864.54
2023-05-14T21:05:09.031Z,97863.25
2023-05-14T21:07:35.468Z,97859.04
2023-05-14T21:10:02.641Z,97855.52
2023-05-14T21:12:29.171Z,97845.79
2023-05-14T21:14:55.637Z,97830.52
2023-05-14T21:17:22.268Z,97824.40
2023-05-14T21:19:48.776Z,97819.40
2023-05-14T21:22:15.308Z,97818.56
2023-05-14T21:24:41.768Z,97820.90
2023-05-14T21:27:08.479Z,97816.29
2023-05-14T21:29:34.875Z,97817.16
2023-05-14T21:32:01.416Z,97822.29
2023-05-14T21:34:29.125Z,97824.70
2023-05-14T21:36:56.511Z,97825.35
2023-05-14T21:39:22.976Z,97824.98
2023-05-14T21:41:49.693Z,97823.48
2023-05-14T21:44:16.378Z,97821.20
2023-05-14T21:46:42.926Z,97817.10
2023-05-14T21:49:09.477Z,97814.64
2023-05-14T21:51:36.019Z,97809.45
2023-05-14T21:54:02.664Z,97810.02
2023-05-14T21:56:29.131Z,97812.45
2023-05-14T21:58:56.164Z,97811.07
2023-05-14T22:01:23.064Z,97809.36
2023-05-14T22:03:49.723Z,97800.69
2023-05-14T22:06:16.806Z,97793.95
2023-05-14T22:08:43.252Z,97805.35
2023-05-14T22:11:09.711Z,97815.83
2023-05-14T22:13:36.161Z,97813.02
2023-05-14T22:16:12.102Z,97808.44
2023-05-14T22:18:39.270Z,97816.00
2023-05-14T22:21:06.085Z,97811.84
2023-05-14T22:23:32.572Z,97800.91
2023-05-14T22:25:59.071Z,97785.11
2023-05-14T22:28:25.570Z,97784.73
2023-05-14T22:30:52.449Z,97778.77
2023-05-14T22:33:19.284Z,97772.96
2023-05-14T22:35:46.277Z,97771.33
2023-05-14T22:38:13.556Z,97763.76
2023-05-14T22:40:40.153Z,97758.96
2023-05-14T22:43:06.595Z,97747.77
2023-05-14T22:45:33.147Z,97742.71
2023-05-14T22:47:59.905Z,97737.19
2023-05-14T22:50:26.549Z,97734.08
2023-05-14T22:52:52.962Z,97733.30
2023-05-14T22:55:19.543Z,97740.56
2023-05-14T22:57:46.080Z,97748.20
2023-05-14T23:00:13.454Z,97751.59
2023-05-14T23:02:40.334Z,97764.36
2023-05-14T23:05:08.664Z,97758.41
2023-05-14T23:07:35.578Z,97754.14
2023-05-14T23:10:02.202Z,97746.87
2023-05-14T23:12:28.764Z,97748.63
2023-05-14T23:14:55.552Z,97746.86
2023-05-14T23:17:22.185Z,97747.14
2023-05-14T23:19:48.936Z,97748.33
2023-05-14T23:22:15.673Z,97744.63
2023-05-14T23:24:42.124Z,97745.48
2023-05-14T23:27:10.787Z,97744.58
2023-05-14T23:29:37.577Z,97740.72
2023-05-14T23:32:04.399Z,97738.13
2023-05-14T23:34:30.993Z,97730.95
2023-05-14T23:36:57.464Z,97722.06
2023-05-14T23:39:24.112Z,97718.11
2023-05-14T23:41:50.875Z,97713.00
2023-05-14T23:44:17.424Z,97708.09
2023-05-14T23:46:44.145Z,97699.35
2023-05-14T23:49:11.102Z,97693.48
2023-05-14T23:51:37.674Z,97688.91
2023-05-14T23:54:04.321Z,97689.04
2023-05-14T23:56:30.837Z,97689.35
2023-05-14T23:58:57.506Z,97691.97
